Time;durP1;ratioP1;P1;durP2;ratioP2;P2;SDS_P1;SDS_P2;PMS_P1;PMS_P2;Temp;Humidity;BMP_temperature;BMP_pressure;BME280_temperature;BME280_humidity;BME280_pressure;Samples;Min_cycle;Max_cycle;Signal;HPM_P1;HPM_P2
2022/10/27 00:02:23;;;;;;;5.68;5.00;;;16.50;99.90;;;;;;5014237;28;20026;-93
2022/10/27 00:04:49;;;;;;;5.30;4.80;;;16.40;99.90;;;;;;5015508;28;20025;-92
2022/10/27 00:07:15;;;;;;;7.75;5.13;;;16.40;99.90;;;;;;5013885;28;20405;-93
2022/10/27 00:09:40;;;;;;;6.63;5.15;;;16.40;99.90;;;;;;5015405;28;20479;-93
2022/10/27 00:12:06;;;;;;;5.43;4.93;;;16.40;99.90;;;;;;5030633;28;20026;-93
2022/10/27 00:14:32;;;;;;;7.20;5.05;;;16.30;99.90;;;;;;5030586;28;20483;-93
2022/10/27 00:16:57;;;;;;;5.95;5.28;;;16.20;99.90;;;;;;5030474;28;20060;-92
2022/10/27 00:19:24;;;;;;;5.80;4.93;;;16.20;99.90;;;;;;5030749;28;20419;-92
2022/10/27 00:21:50;;;;;;;6.40;4.65;;;16.30;99.90;;;;;;5029934;28;20048;-93
2022/10/27 00:24:20;;;;;;;8.48;5.65;;;16.30;99.90;;;;;;5014969;28;20025;-93
2022/10/27 00:26:46;;;;;;;6.47;5.10;;;16.40;99.90;;;;;;5014814;28;20597;-93
2022/10/27 00:29:12;;;;;;;7.53;5.50;;;16.50;99.90;;;;;;5014895;28;20065;-93
2022/10/27 00:31:38;;;;;;;7.90;5.28;;;16.60;99.90;;;;;;5024711;28;20365;-92
2022/10/27 00:34:03;;;;;;;5.68;5.18;;;16.70;99.90;;;;;;5030015;28;20396;-93
2022/10/27 00:36:29;;;;;;;7.20;5.00;;;16.60;99.90;;;;;;5029652;28;20025;-92
2022/10/27 00:38:57;;;;;;;6.53;5.10;;;16.70;99.90;;;;;;5030208;28;20511;-92
2022/10/27 00:41:34;;;;;;;5.57;5.03;;;16.70;99.90;;;;;;5030034;28;20113;-93
2022/10/27 00:44:21;;;;;;;7.55;5.25;;;16.80;99.90;;;;;;5029895;28;20022;-93
2022/10/27 00:46:47;;;;;;;9.18;5.90;;;16.80;99.90;;;;;;5014702;28;20034;-93
2022/10/27 00:49:16;;;;;;;7.97;5.43;;;16.80;99.90;;;;;;5029913;28;20018;-93
2022/10/27 00:51:51;;;;;;;6.80;5.20;;;16.80;99.90;;;;;;5012980;28;20018;-93
2022/10/27 00:54:18;;;;;;;6.72;5.07;;;16.90;99.90;;;;;;5014905;28;20033;-93
2022/10/27 00:56:46;;;;;;;7.90;5.53;;;17.00;99.90;;;;;;5013335;28;20034;-93
2022/10/27 00:59:13;;;;;;;7.85;5.97;;;16.90;99.90;;;;;;5013335;28;20060;-93
2022/10/27 01:01:40;;;;;;;7.50;5.45;;;16.90;99.90;;;;;;5013022;28;20030;-93
2022/10/27 01:04:05;;;;;;;8.65;6.03;;;16.90;99.90;;;;;;5012732;28;20057;-92
2022/10/27 01:06:34;;;;;;;10.63;6.75;;;17.00;99.90;;;;;;5012878;28;20064;-93
2022/10/27 01:09:02;;;;;;;9.38;6.22;;;17.00;99.90;;;;;;5029614;28;20113;-92
2022/10/27 01:11:27;;;;;;;6.20;5.55;;;17.00;99.90;;;;;;5029638;28;20053;-92
2022/10/27 01:13:53;;;;;;;6.70;5.63;;;16.90;99.90;;;;;;5029343;28;20554;-92
2022/10/27 01:16:37;;;;;;;9.38;5.78;;;16.80;99.90;;;;;;5013244;28;20034;-92
2022/10/27 01:19:31;;;;;;;8.48;6.13;;;16.80;99.90;;;;;;5012821;28;20120;-93
2022/10/27 01:22:05;;;;;;;8.45;5.60;;;16.60;99.90;;;;;;5012519;28;20026;-92
2022/10/27 01:24:37;;;;;;;8.43;5.43;;;16.60;99.90;;;;;;5012940;28;20026;-93
2022/10/27 01:27:41;;;;;;;8.55;5.75;;;16.70;99.90;;;;;;5013085;28;20022;-93
2022/10/27 01:30:14;;;;;;;10.07;6.05;;;16.60;99.90;;;;;;4992397;28;20145;-93
2022/10/27 01:33:02;;;;;;;9.70;6.65;;;16.60;99.90;;;;;;4978689;28;20022;-93
2022/10/27 01:36:15;;;;;;;10.48;6.45;;;16.70;99.90;;;;;;4992544;28;20030;-92
2022/10/27 01:39:10;;;;;;;8.52;6.20;;;16.80;99.90;;;;;;4979741;28;20041;-93
2022/10/27 01:41:53;;;;;;;8.38;6.13;;;16.70;99.90;;;;;;4975846;28;20125;-93
2022/10/27 01:44:30;;;;;;;9.40;6.40;;;16.80;99.90;;;;;;4975944;28;20038;-93
2022/10/27 01:46:57;;;;;;;11.50;6.30;;;16.90;99.90;;;;;;4976131;28;20034;-93
2022/10/27 01:49:23;;;;;;;10.20;7.03;;;17.00;99.90;;;;;;4976040;28;20018;-92
2022/10/27 01:51:49;;;;;;;9.27;6.05;;;17.00;99.90;;;;;;4992200;28;20053;-93
2022/10/27 01:54:18;;;;;;;9.27;6.53;;;16.90;99.90;;;;;;4976124;28;20412;-94
2022/10/27 01:57:00;;;;;;;6.35;5.72;;;16.90;99.90;;;;;;4992435;28;20500;-92
2022/10/27 01:59:51;;;;;;;7.93;5.25;;;16.80;99.90;;;;;;4976083;28;20125;-94
2022/10/27 02:02:50;;;;;;;8.25;5.57;;;16.70;99.90;;;;;;4985200;28;20050;-93
2022/10/27 02:05:31;;;;;;;7.93;5.63;;;16.70;99.90;;;;;;4992072;28;20031;-93
2022/10/27 02:08:08;;;;;;;7.45;5.93;;;16.80;99.90;;;;;;4994319;28;20022;-92
2022/10/27 02:10:55;;;;;;;9.55;6.70;;;16.80;99.90;;;;;;4994067;28;20085;-93
2022/10/27 02:13:21;;;;;;;9.13;6.05;;;16.80;99.90;;;;;;4994307;28;20023;-92
2022/10/27 02:15:51;;;;;;;8.98;5.88;;;16.70;99.90;;;;;;5012731;28;20034;-93
2022/10/27 02:18:23;;;;;;;9.00;6.13;;;16.60;99.90;;;;;;5012976;28;20031;-93
2022/10/27 02:20:52;;;;;;;9.13;5.90;;;16.60;99.90;;;;;;4997657;28;20019;-93
2022/10/27 02:23:21;;;;;;;7.53;5.57;;;16.60;99.90;;;;;;5012874;28;20030;-93
2022/10/27 02:26:22;;;;;;;6.05;5.20;;;16.60;99.90;;;;;;5013062;28;20045;-93
2022/10/27 02:28:56;;;;;;;7.45;5.13;;;16.60;99.90;;;;;;4997246;28;20058;-93
2022/10/27 02:31:28;;;;;;;6.38;4.72;;;16.60;99.90;;;;;;5015790;28;20018;-93
2022/10/27 02:33:56;;;;;;;6.38;5.75;;;16.60;99.90;;;;;;5017194;28;20029;-93
2022/10/27 02:36:22;;;;;;;8.52;5.25;;;16.60;99.90;;;;;;5032342;28;20073;-93
2022/10/27 02:38:47;;;;;;;9.25;6.35;;;16.60;99.90;;;;;;5016848;28;20475;-93
2022/10/27 02:41:13;;;;;;;7.32;5.03;;;16.60;99.90;;;;;;5032206;28;20036;-93
2022/10/27 02:43:39;;;;;;;10.50;6.45;;;16.50;99.90;;;;;;5032133;28;20396;-93
2022/10/27 02:46:05;;;;;;;7.60;5.57;;;16.50;99.90;;;;;;5016744;28;20029;-93
2022/10/27 02:48:30;;;;;;;11.13;5.65;;;16.60;99.90;;;;;;5032218;28;20033;-93
2022/10/27 02:50:56;;;;;;;6.22;5.40;;;16.50;99.90;;;;;;5032034;28;20056;-92
2022/10/27 02:53:22;;;;;;;6.18;5.40;;;16.40;99.90;;;;;;5016787;28;20058;-92
2022/10/27 02:55:47;;;;;;;9.38;5.93;;;16.50;99.90;;;;;;5016666;28;20034;-93
2022/10/27 02:58:13;;;;;;;7.03;5.30;;;16.50;99.90;;;;;;5015444;28;20041;-93
2022/10/27 03:00:39;;;;;;;7.47;5.47;;;16.50;99.90;;;;;;5016144;28;20080;-93
2022/10/27 03:03:04;;;;;;;7.60;6.03;;;16.50;99.90;;;;;;5015296;28;20499;-93
2022/10/27 03:05:30;;;;;;;7.80;5.97;;;16.40;99.90;;;;;;5015485;28;20052;-92
2022/10/27 03:07:56;;;;;;;6.80;5.57;;;16.50;99.90;;;;;;5015416;28;20507;-93
2022/10/27 03:10:22;;;;;;;8.02;6.03;;;16.50;99.90;;;;;;5016472;28;20090;-92
2022/10/27 03:12:47;;;;;;;9.15;6.78;;;16.60;99.90;;;;;;5015219;28;20563;-93
2022/10/27 03:15:14;;;;;;;9.15;5.78;;;16.70;99.90;;;;;;5015085;28;20029;-93
2022/10/27 03:17:47;;;;;;;7.75;5.72;;;16.70;99.90;;;;;;5015047;28;20120;-92
2022/10/27 03:20:15;;;;;;;9.52;6.30;;;16.70;99.90;;;;;;5015064;28;20029;-93
2022/10/27 03:22:41;;;;;;;10.77;5.70;;;16.70;99.90;;;;;;5015034;28;20033;-92
2022/10/27 03:25:10;;;;;;;9.18;6.40;;;16.50;99.90;;;;;;5014599;28;20050;-92
2022/10/27 03:27:38;;;;;;;7.13;5.65;;;16.50;99.90;;;;;;5015083;28;20026;-93
2022/10/27 03:30:05;;;;;;;6.22;5.35;;;16.60;99.90;;;;;;5016005;28;20018;-93
2022/10/27 03:32:31;;;;;;;6.68;5.30;;;16.60;99.90;;;;;;5025985;28;20033;-92
2022/10/27 03:34:57;;;;;;;6.68;5.28;;;16.60;99.90;;;;;;5015576;28;20026;-92
2022/10/27 03:37:23;;;;;;;8.10;5.80;;;16.70;99.90;;;;;;5015794;28;20024;-93
2022/10/27 03:39:48;;;;;;;6.43;5.30;;;16.60;99.90;;;;;;5014775;28;20450;-93
2022/10/27 03:42:14;;;;;;;7.63;5.85;;;16.50;99.90;;;;;;5030865;28;20422;-93
2022/10/27 03:44:40;;;;;;;8.13;5.75;;;16.40;99.90;;;;;;5030964;28;20018;-93
2022/10/27 03:47:05;;;;;;;6.80;4.97;;;16.40;99.90;;;;;;5014793;28;20109;-93
2022/10/27 03:49:31;;;;;;;8.88;5.90;;;16.40;99.90;;;;;;5015758;28;20041;-93
2022/10/27 03:51:57;;;;;;;9.10;5.40;;;16.40;99.90;;;;;;5031051;28;20053;-93
2022/10/27 03:54:22;;;;;;;6.25;5.03;;;16.40;99.90;;;;;;5015814;28;20476;-93
2022/10/27 03:56:48;;;;;;;6.30;4.95;;;16.50;99.90;;;;;;5015731;28;20033;-93
2022/10/27 03:59:14;;;;;;;7.70;5.38;;;16.50;99.90;;;;;;5030681;28;20032;-93
2022/10/27 04:01:39;;;;;;;9.45;6.15;;;16.60;99.90;;;;;;5031026;28;20499;-93
2022/10/27 04:04:05;;;;;;;7.25;5.75;;;16.60;99.90;;;;;;5030529;28;20161;-93
2022/10/27 04:06:31;;;;;;;8.10;6.43;;;16.50;99.90;;;;;;5030445;28;20501;-92
2022/10/27 04:08:56;;;;;;;9.68;6.30;;;16.50;99.90;;;;;;5014299;28;20052;-92
2022/10/27 04:11:22;;;;;;;7.93;5.78;;;16.50;99.90;;;;;;5030334;28;20037;-93
2022/10/27 04:13:48;;;;;;;7.68;5.68;;;16.50;99.90;;;;;;5030505;28;20118;-93
2022/10/27 04:16:13;;;;;;;6.25;5.65;;;16.60;99.90;;;;;;5015713;28;20368;-93
2022/10/27 04:18:39;;;;;;;7.25;5.70;;;16.60;99.90;;;;;;5030647;28;20025;-93
2022/10/27 04:21:05;;;;;;;8.45;5.97;;;16.60;99.90;;;;;;5030877;28;20053;-93
2022/10/27 04:23:32;;;;;;;6.63;5.47;;;16.50;99.90;;;;;;5031106;28;20022;-93
2022/10/27 04:25:58;;;;;;;7.55;5.65;;;16.50;99.90;;;;;;5015493;28;20041;-92
2022/10/27 04:28:24;;;;;;;9.02;5.97;;;16.50;99.90;;;;;;5030411;28;20511;-93
2022/10/27 04:30:49;;;;;;;6.45;4.97;;;16.50;99.90;;;;;;5030799;28;20086;-93
2022/10/27 04:33:15;;;;;;;6.55;5.38;;;16.40;99.90;;;;;;5030819;28;20034;-93
2022/10/27 04:35:41;;;;;;;7.50;5.93;;;16.40;99.90;;;;;;5030417;28;20492;-93
2022/10/27 04:38:07;;;;;;;7.93;5.25;;;16.60;99.90;;;;;;5030331;28;20479;-92
2022/10/27 04:40:33;;;;;;;8.00;6.05;;;16.50;99.90;;;;;;5013681;28;20484;-93
2022/10/27 04:42:58;;;;;;;8.65;5.63;;;16.60;99.90;;;;;;5029693;28;20026;-93
2022/10/27 04:45:24;;;;;;;9.82;6.40;;;16.50;99.90;;;;;;5030830;28;20030;-94
2022/10/27 04:47:50;;;;;;;8.90;5.78;;;16.50;99.90;;;;;;5014828;28;20065;-92
2022/10/27 04:50:16;;;;;;;7.45;5.45;;;16.60;99.90;;;;;;5029829;28;20037;-93
2022/10/27 04:52:52;;;;;;;8.43;5.88;;;16.60;99.90;;;;;;5013705;28;20053;-92
2022/10/27 04:55:18;;;;;;;9.50;5.88;;;16.50;99.90;;;;;;5014238;28;20026;-92
2022/10/27 04:57:43;;;;;;;8.18;5.78;;;16.50;99.90;;;;;;5013343;28;20403;-92
2022/10/27 05:00:10;;;;;;;13.05;7.05;;;16.60;99.90;;;;;;5014530;28;20060;-93
2022/10/27 05:02:35;;;;;;;11.80;6.57;;;16.70;99.90;;;;;;5014717;28;20033;-92
2022/10/27 05:05:01;;;;;;;9.13;6.40;;;16.70;99.90;;;;;;5014256;28;20554;-92
2022/10/27 05:07:27;;;;;;;11.55;7.28;;;16.70;99.90;;;;;;5013545;28;20036;-92
2022/10/27 05:09:52;;;;;;;13.40;7.22;;;16.70;99.90;;;;;;5014382;28;20047;-93
2022/10/27 05:12:18;;;;;;;10.55;6.32;;;16.60;99.90;;;;;;5014143;28;20103;-92
2022/10/27 05:14:44;;;;;;;9.30;6.57;;;16.60;99.90;;;;;;5029747;28;20100;-92
2022/10/27 05:17:09;;;;;;;9.02;6.72;;;16.60;99.90;;;;;;5014493;28;20034;-92
2022/10/27 05:19:35;;;;;;;12.13;7.18;;;16.70;99.90;;;;;;5029352;28;20033;-92
2022/10/27 05:22:01;;;;;;;7.43;6.13;;;16.60;99.90;;;;;;5029475;28;20495;-92
2022/10/27 05:24:26;;;;;;;10.73;7.00;;;16.60;99.90;;;;;;5013521;28;20102;-92
2022/10/27 05:26:52;;;;;;;9.43;6.60;;;16.60;99.90;;;;;;5014651;28;20018;-91
2022/10/27 05:29:18;;;;;;;11.50;6.78;;;16.60;99.90;;;;;;5029434;28;20076;-92
2022/10/27 05:31:43;;;;;;;13.40;7.35;;;16.60;99.90;;;;;;5014162;28;20048;-92
2022/10/27 05:34:09;;;;;;;9.85;6.07;;;16.60;99.90;;;;;;5029529;28;20092;-92
2022/10/27 05:36:35;;;;;;;11.45;6.88;;;16.60;99.90;;;;;;5012881;28;20510;-92
2022/10/27 05:39:00;;;;;;;9.10;6.63;;;16.70;99.90;;;;;;5014575;28;20548;-92
2022/10/27 05:41:26;;;;;;;9.20;6.65;;;16.60;99.90;;;;;;5029391;28;20037;-92
2022/10/27 05:43:52;;;;;;;10.38;6.03;;;16.70;99.90;;;;;;5029529;28;20029;-92
2022/10/27 05:46:17;;;;;;;6.95;6.32;;;16.60;99.90;;;;;;5014318;28;20029;-92
2022/10/27 05:48:43;;;;;;;8.00;6.55;;;16.50;99.90;;;;;;5014869;28;20108;-92
2022/10/27 05:51:09;;;;;;;11.13;6.68;;;16.50;99.90;;;;;;5032572;28;20479;-92
2022/10/27 05:53:34;;;;;;;11.75;6.88;;;16.50;99.90;;;;;;5018249;28;20026;-91
2022/10/27 05:56:00;;;;;;;10.70;6.28;;;16.60;99.90;;;;;;5017626;28;20431;-91
2022/10/27 05:58:26;;;;;;;7.50;5.93;;;16.60;99.90;;;;;;5017307;28;20036;-91
2022/10/27 06:00:51;;;;;;;8.23;6.68;;;16.50;99.90;;;;;;5018282;28;20101;-92
2022/10/27 06:03:22;;;;;;;7.57;5.63;;;16.50;99.90;;;;;;5033414;28;20084;-92
2022/10/27 06:05:48;;;;;;;9.20;6.25;;;16.50;99.90;;;;;;5033183;28;20089;-92
2022/10/27 06:08:16;;;;;;;8.40;6.13;;;16.50;99.90;;;;;;5018121;28;20036;-91
2022/10/27 06:10:42;;;;;;;11.38;7.10;;;16.60;99.90;;;;;;5033674;28;20053;-92
2022/10/27 06:13:10;;;;;;;10.38;6.22;;;16.60;99.90;;;;;;5032614;28;20117;-92
2022/10/27 06:15:37;;;;;;;5.78;5.22;;;16.50;99.90;;;;;;5017321;28;20057;-92
2022/10/27 06:18:03;;;;;;;11.70;6.10;;;16.50;99.90;;;;;;5032905;28;20030;-92
2022/10/27 06:20:29;;;;;;;7.55;5.95;;;16.50;99.90;;;;;;5032687;28;20025;-91
2022/10/27 06:22:55;;;;;;;8.43;6.00;;;16.50;99.90;;;;;;5032849;28;20454;-91
2022/10/27 06:25:20;;;;;;;10.75;6.35;;;16.40;99.90;;;;;;5017008;28;20074;-91
2022/10/27 06:27:46;;;;;;;8.27;5.75;;;16.40;99.90;;;;;;5032655;28;20390;-91
2022/10/27 06:30:12;;;;;;;9.45;6.72;;;16.40;99.90;;;;;;5032933;28;20436;-91
2022/10/27 06:32:39;;;;;;;7.57;6.30;;;16.60;99.90;;;;;;5016556;28;20029;-91
2022/10/27 06:35:06;;;;;;;8.63;6.72;;;16.60;99.90;;;;;;5032464;28;20025;-91
2022/10/27 06:37:31;;;;;;;9.27;6.70;;;16.60;99.90;;;;;;5016951;28;20033;-91
2022/10/27 06:39:57;;;;;;;6.63;5.53;;;16.60;99.90;;;;;;5031609;28;20025;-91
2022/10/27 06:42:23;;;;;;;9.00;6.88;;;16.60;99.90;;;;;;5031698;28;20483;-91
2022/10/27 06:44:50;;;;;;;9.88;6.25;;;16.60;99.90;;;;;;5015358;28;20109;-91
2022/10/27 06:47:16;;;;;;;10.05;6.03;;;16.70;99.90;;;;;;5031830;28;20021;-91
2022/10/27 06:49:41;;;;;;;9.50;6.32;;;16.70;99.90;;;;;;5011467;28;20484;-91
2022/10/27 06:52:07;;;;;;;7.63;5.97;;;16.70;99.90;;;;;;5011739;28;20026;-91
2022/10/27 06:54:33;;;;;;;10.23;6.28;;;16.70;99.90;;;;;;4996531;28;20014;-91
2022/10/27 06:56:58;;;;;;;8.77;6.18;;;16.60;99.90;;;;;;4996437;28;20471;-91
2022/10/27 06:59:24;;;;;;;7.35;5.78;;;16.70;99.90;;;;;;4995811;28;20036;-90
2022/10/27 07:01:50;;;;;;;8.52;6.05;;;16.70;99.90;;;;;;4996431;28;20116;-91
2022/10/27 07:04:15;;;;;;;9.35;6.10;;;16.80;99.90;;;;;;4996234;28;20053;-90
2022/10/27 07:06:41;;;;;;;6.85;5.88;;;16.90;99.90;;;;;;5021442;28;20022;-92
2022/10/27 07:09:07;;;;;;;6.68;5.80;;;17.10;99.90;;;;;;5014522;28;20466;-89
2022/10/27 07:11:32;;;;;;;9.45;6.50;;;17.10;99.90;;;;;;5031000;28;20030;-89
2022/10/27 07:13:58;;;;;;;9.00;6.72;;;17.20;99.90;;;;;;5016040;28;20026;-89
2022/10/27 07:16:24;;;;;;;8.20;6.60;;;17.40;99.90;;;;;;5031250;28;20518;-90
2022/10/27 07:18:49;;;;;;;9.35;6.70;;;17.40;99.90;;;;;;5016361;28;20037;-90
2022/10/27 07:21:15;;;;;;;8.25;6.38;;;17.50;99.90;;;;;;5015178;28;20036;-91
2022/10/27 07:23:41;;;;;;;11.55;6.50;;;17.50;99.90;;;;;;5016014;28;20037;-91
2022/10/27 07:26:07;;;;;;;7.72;6.30;;;17.60;99.90;;;;;;5030626;28;20463;-91
2022/10/27 07:28:32;;;;;;;8.23;6.63;;;17.80;99.90;;;;;;5030825;28;20026;-91
2022/10/27 07:30:58;;;;;;;9.88;6.85;;;17.80;99.90;;;;;;5030651;28;20089;-91
2022/10/27 07:33:24;;;;;;;11.60;6.97;;;17.80;99.90;;;;;;5015352;28;20470;-91
2022/10/27 07:35:51;;;;;;;8.40;6.93;;;17.90;99.90;;;;;;5029970;28;20029;-91
2022/10/27 07:38:18;;;;;;;8.18;6.40;;;17.90;99.90;;;;;;5015270;28;20055;-91
2022/10/27 07:40:43;;;;;;;8.85;6.35;;;17.90;99.90;;;;;;5030179;28;20036;-91
2022/10/27 07:43:10;;;;;;;9.77;6.78;;;18.00;99.90;;;;;;5029876;28;20030;-90
2022/10/27 07:45:40;;;;;;;9.07;6.22;;;18.20;99.90;;;;;;5014873;28;20025;-90
2022/10/27 07:48:11;;;;;;;10.05;6.93;;;18.30;99.90;;;;;;5029776;28;20022;-91
2022/10/27 07:50:37;;;;;;;11.93;6.95;;;18.50;99.90;;;;;;5029314;28;20025;-90
2022/10/27 07:53:03;;;;;;;9.95;7.13;;;18.50;99.90;;;;;;5014467;28;20033;-90
2022/10/27 07:55:31;;;;;;;14.50;7.20;;;18.60;99.90;;;;;;5014404;28;20058;-91
2022/10/27 07:58:02;;;;;;;15.65;8.30;;;18.70;99.90;;;;;;5013187;28;20036;-90
2022/10/27 08:00:29;;;;;;;10.75;8.30;;;18.80;99.90;;;;;;5014237;28;20022;-90
2022/10/27 08:02:59;;;;;;;8.95;6.80;;;18.80;99.90;;;;;;5012672;28;20033;-90
2022/10/27 08:05:24;;;;;;;10.52;7.55;;;18.90;99.90;;;;;;5013544;28;20049;-90
2022/10/27 08:07:50;;;;;;;12.80;7.65;;;19.00;99.90;;;;;;5014085;28;20060;-91
2022/10/27 08:10:16;;;;;;;14.48;8.35;;;19.20;99.90;;;;;;5014105;28;20459;-90
2022/10/27 08:12:42;;;;;;;14.93;8.55;;;19.30;99.90;;;;;;5028025;28;20041;-89
2022/10/27 08:15:10;;;;;;;10.07;7.43;;;19.40;99.90;;;;;;5013682;28;20021;-90
2022/10/27 08:17:36;;;;;;;11.50;7.88;;;19.50;99.90;;;;;;5012474;28;20029;-90
2022/10/27 08:20:02;;;;;;;10.13;7.00;;;20.00;99.90;;;;;;5013245;28;20037;-89
2022/10/27 08:22:28;;;;;;;11.05;7.50;;;20.40;99.90;;;;;;5013038;28;20037;-89
2022/10/27 08:24:54;;;;;;;10.05;7.28;;;20.00;99.90;;;;;;5013588;28;20050;-90
2022/10/27 08:27:20;;;;;;;10.35;7.03;;;19.80;99.90;;;;;;5012769;28;20507;-89
2022/10/27 08:29:45;;;;;;;10.10;6.70;;;19.90;99.90;;;;;;5013538;28;20030;-89
2022/10/27 08:32:11;;;;;;;11.50;7.28;;;19.90;99.90;;;;;;5011848;28;20495;-90
2022/10/27 08:34:37;;;;;;;11.55;7.10;;;20.20;99.90;;;;;;5028379;28;20449;-89
2022/10/27 08:37:02;;;;;;;12.45;7.07;;;20.40;99.90;;;;;;5013174;28;20041;-89
2022/10/27 08:39:28;;;;;;;12.52;7.28;;;20.30;99.90;;;;;;5013325;28;20384;-89
2022/10/27 08:42:22;;;;;;;13.02;7.68;;;20.40;99.90;;;;;;5012837;28;20104;-89
2022/10/27 08:45:12;;;;;;;12.13;7.15;;;20.80;99.90;;;;;;5013292;28;20041;-89
2022/10/27 08:47:38;;;;;;;13.48;7.72;;;21.70;99.90;;;;;;5012974;28;20108;-89
2022/10/27 08:50:17;;;;;;;12.25;7.65;;;21.70;99.90;;;;;;5011350;28;20128;-89
2022/10/27 08:52:55;;;;;;;14.25;7.45;;;21.50;99.90;;;;;;5013028;28;20018;-89
2022/10/27 08:55:27;;;;;;;11.38;7.55;;;21.60;99.90;;;;;;5012665;28;20060;-89
2022/10/27 08:58:26;;;;;;;9.68;7.20;;;22.00;99.90;;;;;;5012724;28;20029;-88
2022/10/27 09:00:52;;;;;;;19.30;8.20;;;21.70;99.90;;;;;;5012885;28;20050;-89
2022/10/27 09:03:45;;;;;;;16.02;8.63;;;22.00;99.90;;;;;;5012636;28;20058;-88
2022/10/27 09:06:15;;;;;;;12.63;8.05;;;22.50;99.90;;;;;;5012664;28;20022;-89
2022/10/27 09:08:57;;;;;;;9.67;7.13;;;22.40;99.90;;;;;;5011294;28;20068;-88
2022/10/27 09:11:28;;;;;;;16.15;8.32;;;22.40;99.90;;;;;;5012554;28;20761;-88
2022/10/27 09:14:13;;;;;;;10.55;7.38;;;22.50;99.90;;;;;;5012669;28;20044;-89
2022/10/27 09:16:45;;;;;;;13.43;6.93;;;22.40;99.90;;;;;;5012608;28;20032;-89
2022/10/27 09:19:18;;;;;;;14.25;7.47;;;22.40;99.90;;;;;;5012604;28;20506;-89
2022/10/27 09:21:44;;;;;;;10.38;6.65;;;22.30;99.90;;;;;;5012371;28;20045;-88
2022/10/27 09:24:18;;;;;;;12.75;7.07;;;22.40;99.90;;;;;;5012243;28;20053;-88
2022/10/27 09:26:47;;;;;;;13.50;7.10;;;22.40;99.90;;;;;;5012089;28;20092;-87
2022/10/27 09:29:20;;;;;;;15.02;7.65;;;22.20;99.90;;;;;;5012617;28;20022;-88
2022/10/27 09:31:59;;;;;;;10.13;7.65;;;22.10;99.90;;;;;;5011897;28;20109;-88
2022/10/27 09:35:02;;;;;;;15.27;7.70;;;22.00;99.90;;;;;;5012396;28;20033;-88
2022/10/27 09:37:31;;;;;;;14.32;7.07;;;21.90;99.90;;;;;;5011967;28;20038;-88
2022/10/27 09:39:57;;;;;;;13.73;7.07;;;21.90;99.90;;;;;;5012437;28;20026;-88
2022/10/27 09:42:24;;;;;;;11.15;6.20;;;21.80;99.90;;;;;;5012226;28;20084;-88
2022/10/27 09:45:00;;;;;;;14.18;7.45;;;21.80;99.90;;;;;;5011142;28;20022;-88
2022/10/27 09:47:36;;;;;;;10.10;7.03;;;21.70;99.90;;;;;;5012063;28;20088;-90
2022/10/27 09:50:05;;;;;;;10.23;7.28;;;21.70;99.90;;;;;;5012257;28;20025;-89
2022/10/27 09:52:39;;;;;;;9.50;6.43;;;21.70;99.90;;;;;;5011993;28;20044;-89
2022/10/27 09:55:06;;;;;;;7.45;6.10;;;21.80;99.90;;;;;;5012269;28;20109;-89
2022/10/27 09:57:35;;;;;;;7.90;6.55;;;21.80;99.90;;;;;;5012480;28;20026;-89
2022/10/27 10:00:03;;;;;;;11.23;6.90;;;21.80;99.90;;;;;;5012050;28;20029;-88
2022/10/27 10:02:31;;;;;;;12.32;6.63;;;21.80;99.90;;;;;;5011924;28;20117;-89
2022/10/27 10:04:59;;;;;;;10.73;6.75;;;21.70;99.90;;;;;;5012453;28;20017;-88
2022/10/27 10:07:32;;;;;;;9.32;6.88;;;21.70;99.90;;;;;;5012052;28;20049;-89
2022/10/27 10:10:23;;;;;;;9.25;6.57;;;21.60;99.90;;;;;;5011926;28;20026;-89
2022/10/27 10:13:02;;;;;;;16.52;6.72;;;21.60;99.90;;;;;;5003886;28;20095;-90
2022/10/27 10:15:29;;;;;;;9.02;6.78;;;21.60;99.90;;;;;;5011962;28;20511;-90
2022/10/27 10:18:00;;;;;;;11.00;6.63;;;21.60;99.90;;;;;;5012193;28;20042;-88
2022/10/27 10:20:29;;;;;;;13.40;6.88;;;21.60;99.90;;;;;;5011790;28;20026;-89
2022/10/27 10:22:55;;;;;;;9.02;6.30;;;21.60;99.90;;;;;;5027149;28;20042;-90
2022/10/27 10:25:28;;;;;;;10.07;6.78;;;21.50;99.90;;;;;;5011720;28;20040;-89
2022/10/27 10:28:00;;;;;;;9.95;7.20;;;21.50;99.90;;;;;;5011948;28;20030;-89
2022/10/27 10:30:26;;;;;;;9.75;6.20;;;21.60;99.90;;;;;;5011821;28;20026;-90
2022/10/27 10:32:56;;;;;;;12.85;6.53;;;21.60;99.90;;;;;;5010535;28;20029;-90
2022/10/27 10:35:42;;;;;;;11.38;7.18;;;21.60;99.90;;;;;;5013430;28;20026;-89
2022/10/27 10:38:23;;;;;;;8.82;6.30;;;21.60;99.90;;;;;;5015561;28;20133;-89
2022/10/27 10:41:11;;;;;;;10.05;5.97;;;21.70;99.90;;;;;;5013913;28;20026;-89
2022/10/27 10:43:38;;;;;;;9.95;6.20;;;21.70;99.90;;;;;;5015253;28;20038;-88
2022/10/27 10:46:06;;;;;;;9.93;5.90;;;21.80;99.90;;;;;;5015298;28;20032;-90
2022/10/27 10:48:47;;;;;;;14.38;7.30;;;21.90;99.90;;;;;;5030732;28;20022;-90
2022/10/27 10:51:24;;;;;;;9.85;5.97;;;22.00;99.90;;;;;;4995361;28;20022;-89
2022/10/27 10:53:52;;;;;;;7.82;6.10;;;22.20;99.90;;;;;;4995875;28;20543;-89
2022/10/27 10:56:23;;;;;;;8.43;6.32;;;22.50;99.90;;;;;;5010620;28;20515;-89
2022/10/27 10:59:08;;;;;;;10.80;6.57;;;22.70;99.90;;;;;;4995596;28;20037;-89
2022/10/27 11:02:12;;;;;;;11.57;6.38;;;22.80;99.90;;;;;;4993918;28;20282;-90
2022/10/27 11:04:48;;;;;;;14.25;6.90;;;22.80;99.90;;;;;;4995589;28;20034;-90
2022/10/27 11:07:20;;;;;;;11.95;6.15;;;22.80;99.90;;;;;;5010066;28;20041;-89
2022/10/27 11:09:54;;;;;;;9.27;5.90;;;22.80;99.90;;;;;;5014873;28;20044;-90
2022/10/27 11:12:31;;;;;;;10.95;6.25;;;22.80;99.90;;;;;;5013223;28;20053;-89
2022/10/27 11:15:03;;;;;;;10.65;7.07;;;22.80;99.90;;;;;;5013483;28;20081;-89
2022/10/27 11:17:33;;;;;;;11.30;6.90;;;22.70;99.90;;;;;;5014958;28;20022;-90
2022/10/27 11:20:00;;;;;;;10.30;6.50;;;22.70;99.90;;;;;;5013204;28;20029;-89
2022/10/27 11:22:27;;;;;;;8.88;6.25;;;22.80;99.90;;;;;;5013012;28;20069;-89
2022/10/27 11:24:56;;;;;;;10.85;6.68;;;22.90;99.90;;;;;;5014599;28;20042;-90
2022/10/27 11:27:41;;;;;;;8.75;6.35;;;23.00;99.90;;;;;;5014341;28;20033;-89
2022/10/27 11:30:21;;;;;;;13.70;6.72;;;23.00;99.90;;;;;;5014407;28;20061;-90
2022/10/27 11:33:14;;;;;;;12.13;6.25;;;23.00;99.90;;;;;;5014403;28;20113;-89
2022/10/27 11:36:10;;;;;;;14.23;6.43;;;23.00;99.90;;;;;;5014270;28;20022;-89
2022/10/27 11:39:07;;;;;;;9.65;6.43;;;23.10;99.90;;;;;;5014455;28;20056;-89
2022/10/27 11:41:54;;;;;;;10.15;6.57;;;23.10;99.90;;;;;;5013998;28;20025;-89
2022/10/27 11:44:41;;;;;;;11.55;6.38;;;22.90;99.90;;;;;;5014388;28;20029;-90
2022/10/27 11:47:11;;;;;;;10.90;6.65;;;22.90;99.90;;;;;;5012796;28;20104;-90
2022/10/27 11:49:51;;;;;;;10.30;5.83;;;22.80;99.90;;;;;;5014336;28;20029;-90
2022/10/27 11:52:20;;;;;;;9.77;5.82;;;22.70;99.90;;;;;;5014070;28;20022;-90
2022/10/27 11:54:47;;;;;;;9.10;6.32;;;22.70;99.90;;;;;;5014128;28;20025;-89
2022/10/27 11:57:34;;;;;;;10.52;6.28;;;22.70;99.90;;;;;;5013843;28;20476;-90
2022/10/27 12:00:13;;;;;;;12.52;6.50;;;22.60;99.90;;;;;;5014160;28;20026;-89
2022/10/27 12:03:10;;;;;;;11.00;5.97;;;22.70;99.90;;;;;;5014135;28;20029;-89
2022/10/27 12:06:05;;;;;;;9.05;5.28;;;22.70;99.90;;;;;;5013924;28;20053;-89
2022/10/27 12:08:36;;;;;;;11.15;6.05;;;22.70;99.90;;;;;;4953310;29;20058;-90
2022/10/27 12:11:31;;;;;;;9.52;6.15;;;22.70;99.90;;;;;;4952870;29;20517;-89
2022/10/27 12:14:24;;;;;;;7.13;5.43;;;22.70;99.90;;;;;;4953051;29;20036;-89
2022/10/27 12:17:17;;;;;;;8.00;5.78;;;22.70;99.90;;;;;;4953117;29;20062;-89
2022/10/27 12:19:46;;;;;;;10.48;5.35;;;22.70;99.90;;;;;;4949131;29;20042;-90
2022/10/27 12:22:34;;;;;;;8.70;6.25;;;22.70;99.90;;;;;;4952610;29;20031;-89
2022/10/27 12:25:24;;;;;;;7.70;5.35;;;22.70;99.90;;;;;;4936604;29;20043;-89
2022/10/27 12:27:53;;;;;;;7.88;5.72;;;22.70;99.90;;;;;;4952425;29;20031;-89
2022/10/27 12:30:21;;;;;;;8.50;5.60;;;22.70;99.90;;;;;;4952825;29;20023;-90
2022/10/27 12:33:04;;;;;;;6.75;5.47;;;22.70;99.90;;;;;;4952658;29;20082;-90
2022/10/27 12:35:47;;;;;;;7.88;5.50;;;22.80;99.90;;;;;;4952745;29;20038;-90
2022/10/27 12:38:44;;;;;;;9.88;6.00;;;22.70;99.90;;;;;;4952814;29;20031;-89
2022/10/27 12:41:28;;;;;;;15.38;6.85;;;22.70;99.90;;;;;;4952120;29;20032;-90
2022/10/27 12:44:10;;;;;;;11.82;5.60;;;22.70;99.90;;;;;;4941263;28;20027;-89
2022/10/27 12:47:24;;;;;;;9.25;5.85;;;22.60;99.90;;;;;;5013104;28;20018;-90
2022/10/27 12:50:22;;;;;;;10.75;5.50;;;22.70;99.90;;;;;;4999892;28;20034;-89
2022/10/27 12:52:59;;;;;;;7.53;4.90;;;22.60;99.90;;;;;;5013182;28;20109;-90
2022/10/27 12:55:37;;;;;;;11.32;5.78;;;22.60;99.90;;;;;;5012893;28;20034;-88
2022/10/27 12:58:19;;;;;;;10.98;4.95;;;22.60;99.90;;;;;;5012651;28;20058;-89
2022/10/27 13:01:22;;;;;;;9.48;5.90;;;22.50;99.90;;;;;;5012781;28;20034;-89
2022/10/27 13:04:12;;;;;;;7.95;5.60;;;22.50;99.90;;;;;;4951928;29;20031;-89
2022/10/27 13:07:14;;;;;;;5.80;5.07;;;22.50;99.90;;;;;;4951872;29;20034;-89